createdAt,value
2019-01-12T00:00:58.806Z,99846.51
2019-01-12T00:03:25.080Z,99835.75
2019-01-12T00:05:51.310Z,99839.55
2019-01-12T00:08:17.889Z,99843.31
2019-01-12T00:10:44.190Z,99850.68
2019-01-12T00:13:10.443Z,99851.13
2019-01-12T00:15:36.606Z,99845.27
2019-01-12T00:18:03.104Z,99846.08
2019-01-12T00:20:29.335Z,99851.91
2019-01-12T00:22:55.603Z,99844.55
2019-01-12T00:25:22.105Z,99856.25
2019-01-12T00:27:48.347Z,99853.66
2019-01-12T00:30:14.792Z,99855.69
2019-01-12T00:32:41.189Z,99849.62
2019-01-12T00:35:09.542Z,99846.50
2019-01-12T00:37:35.772Z,99865.05
2019-01-12T00:40:05.026Z,99877.39
2019-01-12T00:42:31.191Z,99869.30
2019-01-12T00:44:57.409Z,99872.09
2019-01-12T00:47:23.640Z,99875.70
2019-01-12T00:49:49.925Z,99877.17
2019-01-12T00:52:16.114Z,99868.55
2019-01-12T00:54:42.353Z,99877.56
2019-01-12T00:57:08.529Z,99882.66
2019-01-12T00:59:34.759Z,99887.08
2019-01-12T01:02:01.014Z,99890.88
2019-01-12T01:04:27.224Z,99885.52
2019-01-12T01:06:53.431Z,99892.27
2019-01-12T01:09:19.662Z,99887.73
2019-01-12T01:11:45.851Z,99890.20
2019-01-12T01:14:12.053Z,99892.34
2019-01-12T01:16:41.159Z,99889.88
2019-01-12T01:19:07.439Z,99889.77
2019-01-12T01:21:33.653Z,99900.83
2019-01-12T01:23:59.915Z,99899.80
2019-01-12T01:26:26.343Z,99902.14
2019-01-12T01:28:52.578Z,99896.08
2019-01-12T01:31:18.798Z,99895.91
2019-01-12T01:33:44.985Z,99899.69
2019-01-12T01:36:11.508Z,99907.88
2019-01-12T01:38:37.749Z,99916.17
2019-01-12T01:41:04.021Z,99908.31
2019-01-12T01:43:30.233Z,99915.53
2019-01-12T01:45:56.743Z,99925.20
2019-01-12T01:48:23.014Z,99915.59
2019-01-12T01:50:49.539Z,99919.64
2019-01-12T01:53:15.746Z,99925.37
2019-01-12T01:55:41.962Z,99927.48
2019-01-12T01:58:08.418Z,99926.93
2019-01-12T02:00:34.619Z,99927.08
2019-01-12T02:03:00.803Z,99918.83
2019-01-12T02:05:27.045Z,99925.55
2019-01-12T02:07:53.241Z,99924.55
2019-01-12T02:10:20.384Z,99927.11
2019-01-12T02:12:46.575Z,99917.44
2019-01-12T02:15:15.814Z,99921.67
2019-01-12T02:17:42.010Z,99924.56
2019-01-12T02:20:09.311Z,99927.18
2019-01-12T02:22:35.535Z,99929.80
2019-01-12T02:25:02.633Z,99931.77
2019-01-12T02:27:29.110Z,99935.11
2019-01-12T02:29:55.337Z,99927.00
2019-01-12T02:32:21.536Z,99933.09
2019-01-12T02:34:47.761Z,99924.89
2019-01-12T02:37:13.935Z,99929.55
2019-01-12T02:39:40.146Z,99928.08
2019-01-12T02:42:06.375Z,99930.70
2019-01-12T02:44:32.591Z,99937.08
2019-01-12T02:46:58.785Z,99941.84
2019-01-12T02:49:25.031Z,99939.15
2019-01-12T02:51:51.353Z,99941.55
2019-01-12T02:54:17.570Z,99940.78
2019-01-12T02:56:44.124Z,99941.88
2019-01-12T02:59:10.351Z,99938.27
2019-01-12T03:01:36.562Z,99947.34
2019-01-12T03:04:03.159Z,99934.66
2019-01-12T03:06:29.357Z,99942.27
2019-01-12T03:08:55.565Z,99944.88
2019-01-12T03:11:21.741Z,99936.20
2019-01-12T03:13:48.150Z,99935.77
2019-01-12T03:16:14.348Z,99934.37
2019-01-12T03:18:40.533Z,99940.80
2019-01-12T03:21:13.330Z,99934.48
2019-01-12T03:23:39.531Z,99936.78
2019-01-12T03:26:06.050Z,99940.12
2019-01-12T03:28:32.374Z,99938.18
2019-01-12T03:30:58.585Z,99928.05
2019-01-12T03:33:24.810Z,99929.48
2019-01-12T03:35:51.066Z,99925.69
2019-01-12T03:38:17.267Z,99936.52
2019-01-12T03:40:43.515Z,99931.11
2019-01-12T03:43:09.750Z,99933.25
2019-01-12T03:45:36.010Z,99935.88
2019-01-12T03:48:02.407Z,99936.83
2019-01-12T03:50:28.641Z,99934.48
2019-01-12T03:52:54.804Z,99935.47
2019-01-12T03:55:25.755Z,99937.60
2019-01-12T03:57:49.549Z,99933.17
2019-01-12T04:00:18.879Z,99934.81
2019-01-12T04:02:45.112Z,99929.95
2019-01-12T04:05:11.324Z,99933.50
2019-01-12T04:07:37.595Z,99933.80
2019-01-12T04:10:08.643Z,99929.69
2019-01-12T04:12:34.874Z,99933.25
2019-01-12T04:15:01.245Z,99930.72
2019-01-12T04:17:27.468Z,99928.88
2019-01-12T04:19:53.649Z,99926.36
2019-01-12T04:22:19.907Z,99924.47
2019-01-12T04:24:46.114Z,99914.14
2019-01-12T04:27:12.422Z,99919.72
2019-01-12T04:29:38.616Z,99922.02
2019-01-12T04:32:04.831Z,99923.81
2019-01-12T04:34:31.025Z,99923.25
2019-01-12T04:36:57.312Z,99923.42
2019-01-12T04:39:23.832Z,99923.75
2019-01-12T04:41:50.060Z,99921.98
2019-01-12T04:44:16.883Z,99922.09
2019-01-12T04:46:43.092Z,99915.95
2019-01-12T04:49:09.301Z,99921.36
2019-01-12T04:51:35.552Z,99911.84
2019-01-12T04:54:01.748Z,99912.83
2019-01-12T04:56:27.976Z,99917.42
2019-01-12T04:58:54.207Z,99909.88
2019-01-12T05:01:20.396Z,99910.87
2019-01-12T05:03:46.606Z,99918.16
2019-01-12T05:06:13.122Z,99916.35
2019-01-12T05:08:39.327Z,99913.23
2019-01-12T05:11:06.057Z,99917.99
2019-01-12T05:13:32.236Z,99924.31
2019-01-12T05:15:58.450Z,99922.98
2019-01-12T05:18:24.671Z,99921.00
2019-01-12T05:20:50.853Z,99920.30
2019-01-12T05:23:17.082Z,99925.11
2019-01-12T05:25:48.841Z,99925.05
2019-01-12T05:28:13.456Z,99924.69
2019-01-12T05:30:39.671Z,99920.23
2019-01-12T05:33:05.892Z,99923.66
2019-01-12T05:35:32.126Z,99925.63
2019-01-12T05:37:58.670Z,99924.95
2019-01-12T05:40:24.861Z,99932.16
2019-01-12T05:42:51.094Z,99926.27
2019-01-12T05:45:17.281Z,99921.19
2019-01-12T05:47:43.548Z,99928.26
2019-01-12T05:50:11.438Z,99942.56
2019-01-12T05:52:37.775Z,99937.48
2019-01-12T05:55:05.544Z,99926.33
2019-01-12T05:57:31.791Z,99938.40
2019-01-12T05:59:58.263Z,99941.38
2019-01-12T06:02:24.458Z,99944.16
2019-01-12T06:04:51.073Z,99947.82
2019-01-12T06:07:17.663Z,99939.95
2019-01-12T06:09:43.879Z,99952.48
2019-01-12T06:12:10.118Z,99953.09
2019-01-12T06:14:36.298Z,99948.19
2019-01-12T06:17:02.818Z,99942.34
2019-01-12T06:19:29.100Z,99931.70
2019-01-12T06:21:55.342Z,99941.11
2019-01-12T06:24:21.570Z,99942.03
2019-01-12T06:26:47.834Z,99941.02
2019-01-12T06:29:14.033Z,99938.66
2019-01-12T06:31:40.243Z,99944.70
2019-01-12T06:34:06.426Z,99933.49
2019-01-12T06:36:32.666Z,99941.36
2019-01-12T06:38:58.904Z,99947.35
2019-01-12T06:41:25.117Z,99946.20
2019-01-12T06:43:51.317Z,99930.45
2019-01-12T06:46:17.695Z,99931.09
2019-01-12T06:48:44.181Z,99947.42
2019-01-12T06:51:10.611Z,99948.64
2019-01-12T06:53:36.825Z,99942.84
2019-01-12T06:56:03.321Z,99947.89
2019-01-12T06:58:29.629Z,99947.47
2019-01-12T07:00:55.840Z,99947.41
2019-01-12T07:03:26.988Z,99949.86
2019-01-12T07:05:53.313Z,99935.59
2019-01-12T07:08:22.091Z,99948.61
2019-01-12T07:10:48.252Z,99945.34
2019-01-12T07:13:14.455Z,99953.23
2019-01-12T07:15:40.967Z,99949.55
2019-01-12T07:18:08.958Z,99944.19
2019-01-12T07:20:35.276Z,99948.79
2019-01-12T07:23:01.491Z,99948.23
2019-01-12T07:25:28.034Z,99953.81
2019-01-12T07:27:54.274Z,99972.23
2019-01-12T07:30:21.062Z,99968.13
2019-01-12T07:32:47.273Z,99976.15
2019-01-12T07:35:13.676Z,99973.87
2019-01-12T07:37:39.921Z,99972.97
2019-01-12T07:40:06.930Z,99976.25
2019-01-12T07:42:38.241Z,99979.35
2019-01-12T07:45:07.452Z,99985.03
2019-01-12T07:47:34.152Z,99976.33
2019-01-12T07:50:00.324Z,99977.55
2019-01-12T07:52:26.524Z,99984.37
2019-01-12T07:54:52.991Z,99986.51
2019-01-12T07:57:19.253Z,99980.25
2019-01-12T07:59:45.447Z,99984.80
2019-01-12T08:02:11.673Z,99984.84
2019-01-12T08:04:37.841Z,99979.55
2019-01-12T08:07:04.171Z,99973.45
2019-01-12T08:09:30.440Z,99977.23
2019-01-12T08:12:03.319Z,99973.80
2019-01-12T08:14:29.545Z,99987.06
2019-01-12T08:16:55.748Z,99982.48
2019-01-12T08:19:21.946Z,99974.30
2019-01-12T08:21:48.111Z,99970.20
2019-01-12T08:24:14.329Z,99970.52
2019-01-12T08:26:40.530Z,99962.81
2019-01-12T08:29:06.759Z,99959.19
2019-01-12T08:31:35.645Z,99955.87
2019-01-12T08:34:02.154Z,99957.64
2019-01-12T08:36:28.310Z,99958.34
2019-01-12T08:38:54.620Z,99947.00
2019-01-12T08:41:20.860Z,99944.50
2019-01-12T08:43:48.613Z,99949.30
2019-01-12T08:46:14.814Z,99941.18
2019-01-12T08:48:41.089Z,99940.53
2019-01-12T08:51:07.245Z,99945.86
2019-01-12T08:53:37.671Z,99940.77
2019-01-12T08:56:04.291Z,99931.09
2019-01-12T08:58:30.901Z,99936.11
2019-01-12T09:00:57.376Z,99939.72
2019-01-12T09:03:23.630Z,99933.81
2019-01-12T09:05:55.581Z,99933.17
2019-01-12T09:08:21.838Z,99925.95
2019-01-12T09:10:48.010Z,99933.41
2019-01-12T09:13:14.355Z,99930.86
2019-01-12T09:15:40.816Z,99927.89
2019-01-12T09:18:07.012Z,99930.44
2019-01-12T09:20:33.617Z,99934.61
2019-01-12T09:25:45.175Z,99919.70
2019-01-12T09:28:11.378Z,99916.44
2019-01-12T09:30:37.587Z,99911.98
2019-01-12T09:33:04.245Z,99917.87
2019-01-12T09:35:30.766Z,99909.45
2019-01-12T09:37:57.662Z,99903.46
2019-01-12T09:40:23.891Z,99888.75
2019-01-12T09:42:50.588Z,99897.72
2019-01-12T09:45:17.205Z,99889.83
2019-01-12T09:47:43.583Z,99892.19
2019-01-12T09:50:14.411Z,99892.27
2019-01-12T09:52:40.698Z,99890.28
2019-01-12T09:55:07.079Z,99890.28
2019-01-12T09:57:33.313Z,99875.41
2019-01-12T09:59:59.523Z,99879.35
2019-01-12T10:02:25.714Z,99868.30
2019-01-12T10:04:51.901Z,99857.33
2019-01-12T10:07:18.441Z,99857.24
2019-01-12T10:09:44.695Z,99838.49
2019-01-12T10:12:10.871Z,99845.99
2019-01-12T10:14:37.089Z,99843.67
2019-01-12T10:17:03.293Z,99841.71
2019-01-12T10:19:29.496Z,99833.26
2019-01-12T10:21:55.691Z,99834.57
2019-01-12T10:24:21.890Z,99826.98
2019-01-12T10:26:48.070Z,99832.25
2019-01-12T10:29:14.357Z,99831.10
2019-01-12T10:31:40.568Z,99831.27
2019-01-12T10:34:07.227Z,99830.74
2019-01-12T10:36:33.399Z,99829.36
2019-01-12T10:38:59.673Z,99829.95
2019-01-12T10:41:25.840Z,99833.61
2019-01-12T10:43:52.032Z,99827.74
2019-01-12T10:46:18.237Z,99820.36
2019-01-12T10:48:44.466Z,99812.88
2019-01-12T10:51:10.719Z,99813.44
2019-01-12T10:53:36.960Z,99807.41
2019-01-12T10:56:03.613Z,99812.94
2019-01-12T10:58:29.858Z,99807.56
2019-01-12T11:00:56.175Z,99801.31
2019-01-12T11:03:22.475Z,99787.43
2019-01-12T11:05:48.711Z,99802.55
2019-01-12T11:08:15.297Z,99790.55
2019-01-12T11:10:41.543Z,99791.77
2019-01-12T11:13:07.739Z,99787.53
2019-01-12T11:15:34.354Z,99778.70
2019-01-12T11:18:00.536Z,99781.50
2019-01-12T11:20:26.849Z,99770.30
2019-01-12T11:22:53.433Z,99767.33
2019-01-12T11:25:19.773Z,99766.19
2019-01-12T11:27:46.281Z,99760.66
2019-01-12T11:30:18.241Z,99743.14
2019-01-12T11:32:44.426Z,99725.73
2019-01-12T11:35:10.910Z,99752.91
2019-01-12T11:37:37.321Z,99747.55
2019-01-12T11:40:15.136Z,99744.63
2019-01-12T11:42:42.455Z,99745.09
2019-01-12T11:45:08.772Z,99735.43
2019-01-12T11:47:35.003Z,99729.30
2019-01-12T11:50:01.594Z,99705.82
2019-01-12T11:52:27.809Z,99722.77
2019-01-12T11:54:54.020Z,99719.81
2019-01-12T11:57:20.207Z,99714.38
2019-01-12T11:59:46.429Z,99703.13
2019-01-12T12:02:12.708Z,99712.14
2019-01-12T12:04:38.922Z,99700.39
2019-01-12T12:07:05.123Z,99699.13
2019-01-12T12:09:31.326Z,99700.23
2019-01-12T12:11:57.634Z,99694.91
2019-01-12T12:14:23.822Z,99675.02
2019-01-12T12:16:50.065Z,99675.70
2019-01-12T12:19:16.514Z,99670.40
2019-01-12T12:21:43.045Z,99667.06
2019-01-12T12:24:09.215Z,99660.77
2019-01-12T12:26:35.831Z,99654.34
2019-01-12T12:29:02.046Z,99645.34
2019-01-12T12:31:28.506Z,99649.56
2019-01-12T12:33:54.725Z,99642.81
2019-01-12T12:36:20.993Z,99636.63
2019-01-12T12:38:47.177Z,99645.34
2019-01-12T12:41:13.442Z,99636.73
2019-01-12T12:43:39.612Z,99642.70
2019-01-12T12:46:05.838Z,99638.66
2019-01-12T12:48:32.424Z,99631.53
2019-01-12T12:50:58.667Z,99624.08
2019-01-12T12:53:24.878Z,99620.25
2019-01-12T12:55:51.089Z,99612.86
2019-01-12T12:58:17.514Z,99608.62
2019-01-12T13:00:43.764Z,99602.50
2019-01-12T13:03:10.063Z,99597.38
2019-01-12T13:05:36.324Z,99594.98
2019-01-12T13:08:02.927Z,99593.61
2019-01-12T13:10:29.294Z,99595.37
2019-01-12T13:12:55.477Z,99587.09
2019-01-12T13:15:21.678Z,99583.86
2019-01-12T13:17:48.096Z,99584.63
2019-01-12T13:20:17.287Z,99575.48
2019-01-12T13:22:44.036Z,99579.03
2019-01-12T13:25:10.449Z,99585.35
2019-01-12T13:27:39.995Z,99574.60
2019-01-12T13:30:13.241Z,99567.87
2019-01-12T13:32:45.301Z,99568.03
2019-01-12T13:35:11.954Z,99566.28
2019-01-12T13:37:38.315Z,99550.77
2019-01-12T13:40:12.296Z,99548.42
2019-01-12T13:42:38.509Z,99536.35
2019-01-12T13:45:12.217Z,99520.69
2019-01-12T13:47:38.424Z,99511.61
2019-01-12T13:50:09.525Z,99502.69
2019-01-12T13:52:36.587Z,99510.52
2019-01-12T13:55:07.614Z,99506.08
2019-01-12T13:57:33.936Z,99490.80
2019-01-12T14:00:00.370Z,99499.67
2019-01-12T14:02:28.292Z,99496.20
2019-01-12T14:04:54.543Z,99504.87
2019-01-12T14:07:20.770Z,99486.24
2019-01-12T14:09:46.959Z,99480.13
2019-01-12T14:12:13.173Z,99493.70
2019-01-12T14:14:39.584Z,99483.35
2019-01-12T14:17:05.817Z,99467.84
2019-01-12T14:19:31.996Z,99473.50
2019-01-12T14:21:58.220Z,99477.09
2019-01-12T14:24:24.427Z,99484.66
2019-01-12T14:26:50.677Z,99474.14
2019-01-12T14:29:16.905Z,99473.44
2019-01-12T14:31:43.315Z,99473.43
2019-01-12T14:34:12.099Z,99465.33
2019-01-12T14:36:38.910Z,99480.22
2019-01-12T14:39:08.485Z,99471.84
2019-01-12T14:41:34.717Z,99462.16
2019-01-12T14:44:00.907Z,99448.84
2019-01-12T14:46:27.409Z,99437.97
2019-01-12T14:48:53.657Z,99427.13
2019-01-12T14:51:19.834Z,99426.75
2019-01-12T14:53:48.607Z,99429.66
2019-01-12T14:56:14.778Z,99403.70
2019-01-12T14:58:41.070Z,99420.67
2019-01-12T15:01:07.252Z,99397.59
2019-01-12T15:03:33.465Z,99393.27
2019-01-12T15:06:00.060Z,99407.66
2019-01-12T15:08:26.330Z,99404.55
2019-01-12T15:10:52.516Z,99407.88
2019-01-12T15:13:18.768Z,99395.56
2019-01-12T15:15:44.979Z,99390.09
2019-01-12T15:18:12.311Z,99393.99
2019-01-12T15:20:38.701Z,99395.78
2019-01-12T15:23:04.959Z,99389.43
2019-01-12T15:25:31.131Z,99392.71
2019-01-12T15:27:57.939Z,99395.67
2019-01-12T15:30:26.887Z,99386.97
2019-01-12T15:32:53.419Z,99390.36
2019-01-12T15:35:21.798Z,99379.87
2019-01-12T15:37:48.014Z,99377.28
2019-01-12T15:40:17.496Z,99383.02
2019-01-12T15:42:43.870Z,99359.09
2019-01-12T15:45:14.074Z,99370.85
2019-01-12T15:47:40.348Z,99375.09
2019-01-12T15:50:14.151Z,99366.33
2019-01-12T15:52:40.387Z,99363.80
2019-01-12T15:55:06.661Z,99355.80
2019-01-12T15:57:32.889Z,99333.88
2019-01-12T15:59:59.148Z,99326.75
2019-01-12T16:02:25.421Z,99333.11
2019-01-12T16:04:51.588Z,99333.20
2019-01-12T16:07:17.985Z,99315.92
2019-01-12T16:09:44.213Z,99319.35
2019-01-12T16:12:10.718Z,99315.34
2019-01-12T16:14:37.221Z,99315.89
2019-01-12T16:17:06.279Z,99306.48
2019-01-12T16:19:32.499Z,99316.39
2019-01-12T16:21:58.728Z,99307.48
2019-01-12T16:24:25.216Z,99293.77
2019-01-12T16:26:51.428Z,99287.97
2019-01-12T16:29:17.643Z,99281.47
2019-01-12T16:31:44.084Z,99279.11
2019-01-12T16:34:10.368Z,99274.95
2019-01-12T16:36:36.531Z,99268.82
2019-01-12T16:39:12.784Z,99268.27
2019-01-12T16:41:38.962Z,99271.70
2019-01-12T16:44:05.226Z,99261.66
2019-01-12T16:46:32.727Z,99246.27
2019-01-12T16:48:58.958Z,99249.22
2019-01-12T16:51:25.178Z,99240.52
2019-01-12T16:53:51.675Z,99239.72
2019-01-12T16:56:17.849Z,99222.09
2019-01-12T16:58:44.078Z,99204.58
2019-01-12T17:01:10.271Z,99220.67
2019-01-12T17:03:36.491Z,99209.38
2019-01-12T17:06:03.240Z,99211.41
2019-01-12T17:08:29.467Z,99202.80
2019-01-12T17:10:55.660Z,99198.43
2019-01-12T17:13:21.908Z,99188.67
2019-01-12T17:15:48.092Z,99185.14
2019-01-12T17:18:14.318Z,99170.78
2019-01-12T17:20:40.628Z,99177.94
2019-01-12T17:23:06.939Z,99172.75
2019-01-12T17:25:33.464Z,99169.27
2019-01-12T17:27:59.723Z,99165.08
2019-01-12T17:30:25.946Z,99169.61
2019-01-12T17:32:52.163Z,99166.77
2019-01-12T17:35:18.412Z,99176.50
2019-01-12T17:37:45.725Z,99164.71
2019-01-12T17:40:14.355Z,99157.72
2019-01-12T17:42:40.560Z,99145.48
2019-01-12T17:45:14.129Z,99124.02
2019-01-12T17:47:40.656Z,99146.85
2019-01-12T17:50:11.693Z,99118.84
2019-01-12T17:52:37.876Z,99152.43
2019-01-12T17:55:09.106Z,99147.11
2019-01-12T17:57:36.236Z,99135.59
2019-01-12T18:00:07.982Z,99141.61
2019-01-12T18:02:34.331Z,99132.81
2019-01-12T18:05:00.622Z,99141.66
2019-01-12T18:07:26.804Z,99145.27
2019-01-12T18:09:53.139Z,99134.45
2019-01-12T18:12:19.746Z,99135.97
2019-01-12T18:14:46.008Z,99141.48
2019-01-12T18:17:14.259Z,99140.02
2019-01-12T18:19:40.795Z,99118.50
2019-01-12T18:22:07.005Z,99128.81
2019-01-12T18:24:33.369Z,99136.19
2019-01-12T18:26:59.594Z,99105.45
2019-01-12T18:29:25.816Z,99124.56
2019-01-12T18:31:52.341Z,99124.84
2019-01-12T18:34:20.470Z,99124.78
2019-01-12T18:36:46.835Z,99122.11
2019-01-12T18:39:13.113Z,99134.00
2019-01-12T18:41:39.310Z,99110.03
2019-01-12T18:44:05.842Z,99107.69
2019-01-12T18:46:32.008Z,99112.05
2019-01-12T18:48:58.527Z,99082.23
2019-01-12T18:51:25.400Z,99116.91
2019-01-12T18:53:51.791Z,99107.73
2019-01-12T18:56:18.136Z,99111.83
2019-01-12T18:58:44.593Z,99113.12
2019-01-12T19:01:12.913Z,99092.81
2019-01-12T19:03:40.457Z,99091.84
2019-01-12T19:06:06.864Z,99094.63
2019-01-12T19:08:33.290Z,99097.59
2019-01-12T19:11:04.614Z,99088.34
2019-01-12T19:13:31.063Z,99093.81
2019-01-12T19:15:57.568Z,99092.72
2019-01-12T19:18:23.763Z,99095.89
2019-01-12T19:20:50.148Z,99097.97
2019-01-12T19:23:16.799Z,99102.78
2019-01-12T19:25:43.016Z,99075.02
2019-01-12T19:28:09.209Z,99099.99
2019-01-12T19:30:35.467Z,99083.61
2019-01-12T19:33:01.845Z,99098.34
2019-01-12T19:35:29.122Z,99094.79
2019-01-12T19:37:55.327Z,99097.95
2019-01-12T19:40:21.966Z,99095.67
2019-01-12T19:42:48.415Z,99103.11
2019-01-12T19:45:16.658Z,99110.20
2019-01-12T19:47:43.497Z,99099.64
2019-01-12T19:50:14.294Z,99105.23
2019-01-12T19:52:40.568Z,99095.28
2019-01-12T19:55:07.077Z,99101.56
2019-01-12T19:57:33.355Z,99091.77
2019-01-12T19:59:59.546Z,99098.66
2019-01-12T20:02:28.107Z,99103.52
2019-01-12T20:04:56.503Z,99104.52
2019-01-12T20:07:22.836Z,99100.30
2019-01-12T20:09:49.246Z,99104.23
2019-01-12T20:12:18.702Z,99103.59
2019-01-12T20:14:44.938Z,99098.38
2019-01-12T20:17:11.190Z,99106.46
2019-01-12T20:19:39.284Z,99103.19
2019-01-12T20:22:05.815Z,99095.70
2019-01-12T20:24:32.020Z,99103.78
2019-01-12T20:26:58.369Z,99099.74
2019-01-12T20:29:24.581Z,99093.73
2019-01-12T20:32:11.090Z,99077.38
2019-01-12T20:34:39.274Z,99077.77
2019-01-12T20:37:28.112Z,99081.21
2019-01-12T20:40:24.023Z,99073.58
2019-01-12T20:43:15.317Z,99056.43
2019-01-12T20:45:52.922Z,99042.77
2019-01-12T20:48:40.295Z,99062.55
2019-01-12T20:51:20.426Z,99056.39
2019-01-12T20:54:14.112Z,99054.10
2019-01-12T20:57:03.898Z,99051.30
2019-01-12T21:00:10.286Z,99051.30
2019-01-12T21:03:11.604Z,99042.35
2019-01-12T21:05:52.230Z,99052.94
2019-01-12T21:08:35.910Z,99054.55
2019-01-12T21:11:25.935Z,99046.69
2019-01-12T21:14:12.233Z,99051.41
2019-01-12T21:16:40.453Z,99036.42
2019-01-12T21:19:08.672Z,99035.92
2019-01-12T21:24:27.265Z,99017.62
2019-01-12T21:26:55.649Z,99025.33
2019-01-12T21:29:23.214Z,99018.32
2019-01-12T21:31:49.692Z,99013.25
2019-01-12T21:34:16.412Z,99008.00
2019-01-12T21:36:42.852Z,99004.77
2019-01-12T21:39:09.515Z,99015.27
2019-01-12T21:41:35.919Z,99007.77
2019-01-12T21:44:02.239Z,99014.00
2019-01-12T21:46:28.566Z,99008.59
2019-01-12T21:48:55.058Z,99004.38
2019-01-12T21:51:21.548Z,98994.39
2019-01-12T21:53:47.765Z,98994.42
2019-01-12T21:56:13.941Z,98988.37
2019-01-12T21:58:40.165Z,98979.85
2019-01-12T22:01:06.386Z,98992.96
2019-01-12T22:03:32.625Z,98992.48
2019-01-12T22:05:58.825Z,98988.95
2019-01-12T22:08:25.170Z,98988.05
2019-01-12T22:10:51.378Z,98984.10
2019-01-12T22:13:17.612Z,98979.15
2019-01-12T22:15:43.858Z,98987.63
2019-01-12T22:18:10.138Z,98989.58
2019-01-12T22:20:36.304Z,98983.80
2019-01-12T22:23:02.663Z,98986.59
2019-01-12T22:25:29.033Z,98984.46
2019-01-12T22:27:55.255Z,98986.75
2019-01-12T22:30:21.433Z,98985.32
2019-01-12T22:32:47.757Z,98983.84
2019-01-12T22:35:13.977Z,98987.13
2019-01-12T22:37:40.652Z,98979.91
2019-01-12T22:40:15.717Z,98985.82
2019-01-12T22:42:42.007Z,98972.42
2019-01-12T22:45:08.206Z,98984.38
2019-01-12T22:47:34.534Z,98982.80
2019-01-12T22:50:00.718Z,98987.38
2019-01-12T22:52:27.053Z,98980.88
2019-01-12T22:54:53.233Z,98983.05
2019-01-12T22:57:19.444Z,98981.42
2019-01-12T22:59:45.686Z,98972.28
2019-01-12T23:02:11.875Z,98967.22
2019-01-12T23:04:38.194Z,98968.20
2019-01-12T23:07:11.189Z,98976.05
2019-01-12T23:09:33.344Z,98972.28
2019-01-12T23:11:59.810Z,98964.42
2019-01-12T23:14:26.042Z,98971.64
2019-01-12T23:16:52.360Z,98973.11
2019-01-12T23:19:18.909Z,98976.17
2019-01-12T23:21:45.612Z,98970.39
2019-01-12T23:24:12.255Z,98972.97
2019-01-12T23:26:38.802Z,98967.06
2019-01-12T23:29:05.412Z,98959.31
2019-01-12T23:31:32.068Z,98956.70
2019-01-12T23:33:58.365Z,98962.38
2019-01-12T23:36:24.560Z,98960.65
2019-01-12T23:38:50.788Z,98950.98
2019-01-12T23:41:17.027Z,98960.27
2019-01-12T23:43:43.206Z,98954.49
2019-01-12T23:46:09.421Z,98946.94
2019-01-12T23:48:35.643Z,98950.22
2019-01-12T23:51:01.820Z,98957.59
2019-01-12T23:53:28.061Z,98964.77
2019-01-12T23:55:54.319Z,98956.61
2019-01-12T23:58:20.544Z,98966.44
